createdAt,value
2019-01-28T00:01:00.653Z,98948.02
2019-01-28T00:03:29.383Z,98939.88
2019-01-28T00:05:58.100Z,98940.40
2019-01-28T00:08:27.207Z,98931.14
2019-01-28T00:10:55.924Z,98932.41
2019-01-28T00:13:24.649Z,98930.34
2019-01-28T00:15:54.304Z,98929.03
2019-01-28T00:18:23.029Z,98925.95
2019-01-28T00:20:51.752Z,98931.37
2019-01-28T00:23:20.616Z,98927.28
2019-01-28T00:25:49.335Z,98924.21
2019-01-28T00:28:18.096Z,98914.92
2019-01-28T00:30:47.083Z,98918.30
2019-01-28T00:33:15.807Z,98917.25
2019-01-28T00:35:44.532Z,98916.48
2019-01-28T00:38:13.484Z,98918.80
2019-01-28T00:40:42.208Z,98920.59
2019-01-28T00:43:10.926Z,98924.75
2019-01-28T00:45:39.812Z,98922.41
2019-01-28T00:48:08.595Z,98927.05
2019-01-28T00:50:37.312Z,98924.44
2019-01-28T00:53:06.484Z,98920.81
2019-01-28T00:55:35.207Z,98913.28
2019-01-28T00:58:04.238Z,98911.22
2019-01-28T01:00:33.724Z,98908.10
2019-01-28T01:03:02.442Z,98901.92
2019-01-28T01:05:31.359Z,98905.25
2019-01-28T01:08:00.131Z,98907.33
2019-01-28T01:10:28.853Z,98906.53
2019-01-28T01:12:57.572Z,98902.64
2019-01-28T01:15:26.834Z,98901.86
2019-01-28T01:17:55.572Z,98903.42
2019-01-28T01:20:24.294Z,98906.00
2019-01-28T01:22:53.053Z,98918.14
2019-01-28T01:25:21.873Z,98920.20
2019-01-28T01:27:50.590Z,98925.61
2019-01-28T01:30:19.644Z,98926.92
2019-01-28T01:32:48.363Z,98927.37
2019-01-28T01:35:17.099Z,98922.48
2019-01-28T01:37:46.049Z,98916.06
2019-01-28T01:40:16.267Z,98903.94
2019-01-28T01:42:45.091Z,98899.02
2019-01-28T01:45:18.518Z,98898.48
2019-01-28T01:47:47.236Z,98902.55
2019-01-28T01:50:16.015Z,98907.58
2019-01-28T01:52:44.945Z,98906.02
2019-01-28T01:55:14.562Z,98907.33
2019-01-28T01:57:43.280Z,98900.88
2019-01-28T02:00:14.845Z,98895.51
2019-01-28T02:02:43.562Z,98893.46
2019-01-28T02:05:12.374Z,98894.76
2019-01-28T02:07:41.136Z,98893.18
2019-01-28T02:10:12.352Z,98886.63
2019-01-28T02:12:41.071Z,98891.78
2019-01-28T02:15:13.136Z,98886.91
2019-01-28T02:17:41.852Z,98879.41
2019-01-28T02:20:11.678Z,98874.53
2019-01-28T02:22:40.907Z,98870.94
2019-01-28T02:25:12.205Z,98885.95
2019-01-28T02:27:40.931Z,98890.88
2019-01-28T02:30:12.696Z,98878.22
2019-01-28T02:32:41.409Z,98868.20
2019-01-28T02:35:10.754Z,98865.58
2019-01-28T02:37:39.781Z,98867.88
2019-01-28T02:40:14.522Z,98875.39
2019-01-28T02:42:43.239Z,98865.07
2019-01-28T02:45:14.194Z,98863.78
2019-01-28T02:47:42.916Z,98868.67
2019-01-28T02:50:16.314Z,98869.21
2019-01-28T02:52:45.077Z,98867.66
2019-01-28T02:55:14.473Z,98865.58
2019-01-28T02:57:43.186Z,98856.82
2019-01-28T03:00:20.788Z,98856.31
2019-01-28T03:02:49.502Z,98857.81
2019-01-28T03:05:18.842Z,98852.16
2019-01-28T03:07:47.684Z,98853.95
2019-01-28T03:10:21.087Z,98848.00
2019-01-28T03:12:49.803Z,98846.98
2019-01-28T03:15:18.903Z,98842.05
2019-01-28T03:17:47.826Z,98841.03
2019-01-28T03:20:18.053Z,98852.36
2019-01-28T03:22:46.928Z,98848.25
2019-01-28T03:25:18.167Z,98845.88
2019-01-28T03:27:46.858Z,98857.26
2019-01-28T03:30:18.562Z,98857.82
2019-01-28T03:32:47.460Z,98858.82
2019-01-28T03:35:16.275Z,98857.83
2019-01-28T03:37:45.082Z,98856.30
2019-01-28T03:40:19.176Z,98855.01
2019-01-28T03:42:48.197Z,98847.98
2019-01-28T03:45:19.384Z,98836.35
2019-01-28T03:47:48.099Z,98832.26
2019-01-28T03:50:18.733Z,98829.90
2019-01-28T03:52:47.809Z,98823.70
2019-01-28T03:55:16.520Z,98834.77
2019-01-28T03:57:45.350Z,98832.75
2019-01-28T04:00:19.615Z,98838.45
2019-01-28T04:02:48.536Z,98840.22
2019-01-28T04:05:17.270Z,98840.42
2019-01-28T04:07:46.032Z,98838.12
2019-01-28T04:10:17.437Z,98825.00
2019-01-28T04:12:46.154Z,98820.34
2019-01-28T04:15:17.855Z,98826.78
2019-01-28T04:17:46.585Z,98826.00
2019-01-28T04:20:16.625Z,98842.83
2019-01-28T04:22:45.829Z,98847.20
2019-01-28T04:25:14.871Z,98842.28
2019-01-28T04:27:43.607Z,98846.70
2019-01-28T04:30:17.717Z,98843.30
2019-01-28T04:32:46.546Z,98839.16
2019-01-28T04:35:15.350Z,98827.83
2019-01-28T04:37:44.146Z,98817.77
2019-01-28T04:40:15.188Z,98816.47
2019-01-28T04:42:43.978Z,98814.13
2019-01-28T04:45:18.062Z,98817.77
2019-01-28T04:47:47.681Z,98820.08
2019-01-28T04:50:23.668Z,98817.48
2019-01-28T04:52:52.545Z,98815.38
2019-01-28T04:55:21.361Z,98819.94
2019-01-28T04:57:50.083Z,98821.20
2019-01-28T05:00:26.352Z,98810.04
2019-01-28T05:02:55.173Z,98808.53
2019-01-28T05:05:23.882Z,98814.19
2019-01-28T05:07:52.779Z,98811.83
2019-01-28T05:10:22.455Z,98813.89
2019-01-28T05:12:51.171Z,98810.98
2019-01-28T05:15:21.610Z,98804.23
2019-01-28T05:17:50.330Z,98802.95
2019-01-28T05:20:21.247Z,98805.30
2019-01-28T05:22:50.135Z,98805.73
2019-01-28T05:25:18.872Z,98819.67
2019-01-28T05:27:47.566Z,98822.57
2019-01-28T05:30:22.009Z,98818.10
2019-01-28T05:32:50.832Z,98817.41
2019-01-28T05:35:20.659Z,98825.68
2019-01-28T05:37:49.531Z,98829.38
2019-01-28T05:40:20.363Z,98824.47
2019-01-28T05:42:49.081Z,98814.33
2019-01-28T05:45:19.648Z,98815.27
2019-01-28T05:47:48.373Z,98806.21
2019-01-28T05:50:17.296Z,98808.00
2019-01-28T05:52:46.260Z,98801.38
2019-01-28T05:55:17.085Z,98794.10
2019-01-28T05:57:45.802Z,98792.44
2019-01-28T06:00:21.129Z,98790.84
2019-01-28T06:02:49.827Z,98796.03
2019-01-28T06:05:18.658Z,98809.72
2019-01-28T06:07:47.429Z,98816.30
2019-01-28T06:10:16.550Z,98819.02
2019-01-28T06:12:45.284Z,98814.41
2019-01-28T06:15:19.434Z,98819.59
2019-01-28T06:17:48.157Z,98824.10
2019-01-28T06:20:24.957Z,98812.75
2019-01-28T06:22:53.686Z,98814.45
2019-01-28T06:25:22.723Z,98815.04
2019-01-28T06:27:51.484Z,98812.16
2019-01-28T06:30:22.977Z,98814.13
2019-01-28T06:32:51.704Z,98816.44
2019-01-28T06:35:20.477Z,98824.35
2019-01-28T06:37:49.217Z,98825.16
2019-01-28T06:40:20.724Z,98833.45
2019-01-28T06:42:49.491Z,98831.03
2019-01-28T06:45:18.213Z,98827.11
2019-01-28T06:47:47.308Z,98831.73
2019-01-28T06:50:19.007Z,98835.91
2019-01-28T06:52:47.733Z,98828.03
2019-01-28T06:55:16.656Z,98821.77
2019-01-28T06:57:45.950Z,98819.37
2019-01-28T07:00:26.569Z,98826.80
2019-01-28T07:02:55.973Z,98831.72
2019-01-28T07:05:24.788Z,98820.52
2019-01-28T07:07:53.522Z,98821.78
2019-01-28T07:10:22.322Z,98825.34
2019-01-28T07:12:51.043Z,98827.03
2019-01-28T07:15:21.963Z,98831.72
2019-01-28T07:17:55.062Z,98830.97
2019-01-28T07:20:25.415Z,98834.83
2019-01-28T07:22:54.138Z,98830.09
2019-01-28T07:25:23.036Z,98820.94
2019-01-28T07:27:51.755Z,98816.20
2019-01-28T07:30:26.342Z,98821.98
2019-01-28T07:32:55.098Z,98811.67
2019-01-28T07:35:23.822Z,98823.17
2019-01-28T07:37:52.536Z,98827.69
2019-01-28T07:40:21.420Z,98824.67
2019-01-28T07:42:50.119Z,98827.17
2019-01-28T07:45:30.324Z,98838.41
2019-01-28T07:48:03.116Z,98842.47
2019-01-28T07:50:29.490Z,98842.49
2019-01-28T07:52:58.785Z,98838.83
2019-01-28T07:55:27.714Z,98843.24
2019-01-28T07:57:56.533Z,98837.47
2019-01-28T08:00:29.855Z,98835.87
2019-01-28T08:02:58.572Z,98833.22
2019-01-28T08:05:27.751Z,98835.48
2019-01-28T08:07:56.541Z,98826.20
2019-01-28T08:10:25.259Z,98826.58
2019-01-28T08:12:54.282Z,98828.84
2019-01-28T08:15:25.493Z,98823.34
2019-01-28T08:17:54.222Z,98818.64
2019-01-28T08:20:23.042Z,98814.29
2019-01-28T08:22:51.800Z,98811.17
2019-01-28T08:25:21.729Z,98801.53
2019-01-28T08:27:50.954Z,98803.20
2019-01-28T08:30:25.361Z,98807.69
2019-01-28T08:32:54.086Z,98809.36
2019-01-28T08:35:23.810Z,98816.97
2019-01-28T08:37:52.677Z,98818.93
2019-01-28T08:40:22.528Z,98819.78
2019-01-28T08:42:51.244Z,98824.95
2019-01-28T08:45:20.314Z,98833.66
2019-01-28T08:47:49.042Z,98826.77
2019-01-28T08:50:21.570Z,98825.55
2019-01-28T08:52:50.372Z,98817.09
2019-01-28T08:55:21.578Z,98826.37
2019-01-28T08:57:50.706Z,98823.00
2019-01-28T09:00:22.334Z,98825.47
2019-01-28T09:02:51.067Z,98821.17
2019-01-28T09:05:22.323Z,98817.28
2019-01-28T09:07:51.426Z,98820.65
2019-01-28T09:10:28.032Z,98824.15
2019-01-28T09:12:56.891Z,98817.68
2019-01-28T09:15:26.819Z,98807.64
2019-01-28T09:17:56.145Z,98807.82
2019-01-28T09:20:30.167Z,98810.66
2019-01-28T09:22:58.897Z,98810.94
2019-01-28T09:25:27.622Z,98804.98
2019-01-28T09:27:56.602Z,98809.93
2019-01-28T09:30:33.887Z,98805.42
2019-01-28T09:33:03.184Z,98805.03
2019-01-28T09:35:32.068Z,98812.44
2019-01-28T09:38:00.903Z,98810.34
2019-01-28T09:40:33.148Z,98817.63
2019-01-28T09:43:01.867Z,98806.33
2019-01-28T09:45:32.818Z,98799.05
2019-01-28T09:48:01.713Z,98802.95
2019-01-28T09:50:30.546Z,98803.32
2019-01-28T09:52:59.776Z,98797.75
2019-01-28T09:55:28.591Z,98797.86
2019-01-28T09:57:57.307Z,98790.66
2019-01-28T10:00:31.651Z,98790.52
2019-01-28T10:03:00.477Z,98785.25
2019-01-28T10:05:29.194Z,98778.20
2019-01-28T10:07:57.929Z,98774.28
2019-01-28T10:10:27.052Z,98774.76
2019-01-28T10:12:55.869Z,98763.71
2019-01-28T10:15:28.631Z,98767.38
2019-01-28T10:17:57.006Z,98761.88
2019-01-28T10:20:30.921Z,98762.05
2019-01-28T10:22:59.735Z,98752.57
2019-01-28T10:25:28.691Z,98751.31
2019-01-28T10:27:57.517Z,98745.92
2019-01-28T10:30:28.966Z,98735.97
2019-01-28T10:32:57.919Z,98739.04
2019-01-28T10:35:28.447Z,98734.11
2019-01-28T10:37:57.272Z,98724.30
2019-01-28T10:40:29.395Z,98715.25
2019-01-28T10:42:58.124Z,98703.86
2019-01-28T10:45:26.847Z,98706.99
2019-01-28T10:48:00.493Z,98705.14
2019-01-28T10:50:27.453Z,98700.45
2019-01-28T10:52:56.577Z,98698.37
2019-01-28T10:55:26.772Z,98693.82
2019-01-28T10:57:56.291Z,98689.10
2019-01-28T11:00:30.842Z,98690.87
2019-01-28T11:03:00.115Z,98688.09
2019-01-28T11:05:28.933Z,98688.55
2019-01-28T11:07:57.760Z,98677.86
2019-01-28T11:10:28.563Z,98672.77
2019-01-28T11:12:57.520Z,98665.08
2019-01-28T11:15:28.331Z,98666.85
2019-01-28T11:17:58.086Z,98660.48
2019-01-28T11:20:27.111Z,98657.28
2019-01-28T11:22:55.825Z,98648.28
2019-01-28T11:25:27.533Z,98651.68
2019-01-28T11:27:56.615Z,98654.66
2019-01-28T11:30:29.812Z,98655.03
2019-01-28T11:32:58.683Z,98658.23
2019-01-28T11:35:27.633Z,98653.08
2019-01-28T11:37:56.527Z,98649.98
2019-01-28T11:40:25.526Z,98654.78
2019-01-28T11:42:54.256Z,98652.84
2019-01-28T11:45:32.224Z,98649.94
2019-01-28T11:48:00.963Z,98648.50
2019-01-28T11:50:29.691Z,98645.68
2019-01-28T11:52:58.691Z,98647.28
2019-01-28T11:55:27.418Z,98644.98
2019-01-28T11:57:56.143Z,98643.78
2019-01-28T12:00:35.436Z,98642.97
2019-01-28T12:03:04.361Z,98642.14
2019-01-28T12:05:33.082Z,98630.44
2019-01-28T12:08:01.941Z,98629.72
2019-01-28T12:10:30.671Z,98621.44
2019-01-28T12:12:59.396Z,98622.44
2019-01-28T12:15:28.233Z,98621.09
2019-01-28T12:17:56.961Z,98618.82
2019-01-28T12:20:25.693Z,98611.81
2019-01-28T12:22:54.442Z,98620.14
2019-01-28T12:25:23.167Z,98613.93
2019-01-28T12:27:51.888Z,98617.76
2019-01-28T12:30:30.775Z,98613.03
2019-01-28T12:32:59.491Z,98622.09
2019-01-28T12:35:28.213Z,98628.30
2019-01-28T12:37:56.967Z,98621.90
2019-01-28T12:40:25.810Z,98625.41
2019-01-28T12:42:54.620Z,98628.70
2019-01-28T12:45:27.768Z,98619.46
2019-01-28T12:47:56.592Z,98623.09
2019-01-28T12:50:26.316Z,98621.72
2019-01-28T12:52:55.209Z,98618.49
2019-01-28T12:55:25.347Z,98616.39
2019-01-28T12:57:54.304Z,98606.77
2019-01-28T13:00:35.863Z,98607.89
2019-01-28T13:03:05.832Z,98623.43
2019-01-28T13:05:34.575Z,98616.70
2019-01-28T13:08:03.678Z,98622.50
2019-01-28T13:10:32.683Z,98618.91
2019-01-28T13:13:01.407Z,98609.59
2019-01-28T13:15:35.278Z,98617.12
2019-01-28T13:18:04.410Z,98613.22
2019-01-28T13:20:33.242Z,98612.20
2019-01-28T13:23:02.037Z,98598.13
2019-01-28T13:25:36.135Z,98598.25
2019-01-28T13:28:06.056Z,98599.02
2019-01-28T13:30:39.915Z,98596.94
2019-01-28T13:33:11.337Z,98599.09
2019-01-28T13:35:40.076Z,98601.34
2019-01-28T13:38:09.047Z,98596.30
2019-01-28T13:40:37.787Z,98598.59
2019-01-28T13:43:06.619Z,98596.02
2019-01-28T13:45:35.899Z,98592.92
2019-01-28T13:48:07.371Z,98593.33
2019-01-28T13:50:36.093Z,98593.03
2019-01-28T13:53:05.434Z,98597.97
2019-01-28T13:55:34.159Z,98594.00
2019-01-28T13:58:02.988Z,98598.48
2019-01-28T14:00:32.753Z,98587.47
2019-01-28T14:03:01.579Z,98580.75
2019-01-28T14:05:30.406Z,98579.65
2019-01-28T14:07:59.398Z,98580.28
2019-01-28T14:10:28.315Z,98574.09
2019-01-28T14:12:57.141Z,98571.66
2019-01-28T14:15:28.418Z,98575.77
2019-01-28T14:17:57.143Z,98580.75
2019-01-28T14:20:28.204Z,98580.03
2019-01-28T14:22:57.082Z,98578.67
2019-01-28T14:25:26.005Z,98575.52
2019-01-28T14:27:54.737Z,98578.52
2019-01-28T14:30:30.047Z,98574.20
2019-01-28T14:32:58.770Z,98580.75
2019-01-28T14:35:27.590Z,98574.09
2019-01-28T14:37:56.466Z,98573.67
2019-01-28T14:40:26.596Z,98579.65
2019-01-28T14:42:55.322Z,98579.45
2019-01-28T14:45:24.202Z,98588.97
2019-01-28T14:47:52.929Z,98575.30
2019-01-28T14:50:36.118Z,98567.20
2019-01-28T14:53:05.138Z,98562.66
2019-01-28T14:55:33.867Z,98564.75
2019-01-28T14:58:02.846Z,98560.89
2019-01-28T15:00:34.071Z,98562.72
2019-01-28T15:03:02.799Z,98571.86
2019-01-28T15:05:31.580Z,98575.91
2019-01-28T15:08:00.331Z,98581.16
2019-01-28T15:10:30.686Z,98580.95
2019-01-28T15:12:59.591Z,98569.95
2019-01-28T15:15:33.320Z,98568.83
2019-01-28T15:18:02.045Z,98562.60
2019-01-28T15:20:31.185Z,98557.58
2019-01-28T15:22:59.918Z,98547.70
2019-01-28T15:25:28.751Z,98548.34
2019-01-28T15:27:58.099Z,98543.14
2019-01-28T15:30:29.147Z,98542.95
2019-01-28T15:32:58.605Z,98542.12
2019-01-28T15:35:27.534Z,98537.58
2019-01-28T15:37:56.270Z,98536.55
2019-01-28T15:40:32.167Z,98541.72
2019-01-28T15:43:01.021Z,98541.53
2019-01-28T15:45:35.127Z,98544.94
2019-01-28T15:48:04.719Z,98541.12
2019-01-28T15:50:33.445Z,98545.08
2019-01-28T15:56:08.900Z,98543.83
2019-01-28T15:58:37.718Z,98549.06
2019-01-28T16:01:06.557Z,98545.61
2019-01-28T16:03:35.293Z,98541.49
2019-01-28T16:06:04.109Z,98537.67
2019-01-28T16:08:32.844Z,98539.74
2019-01-28T16:11:01.574Z,98539.77
2019-01-28T16:13:30.356Z,98534.69
2019-01-28T16:15:59.197Z,98534.53
2019-01-28T16:18:34.489Z,98534.78
2019-01-28T16:20:58.794Z,98536.28
2019-01-28T16:23:27.517Z,98535.82
2019-01-28T16:25:56.257Z,98538.81
2019-01-28T16:28:25.043Z,98538.98
2019-01-28T16:30:53.777Z,98535.91
2019-01-28T16:33:22.506Z,98530.47
2019-01-28T16:35:51.484Z,98530.80
2019-01-28T16:38:20.215Z,98537.87
2019-01-28T16:40:48.953Z,98529.59
2019-01-28T16:43:18.195Z,98524.03
2019-01-28T16:45:46.922Z,98527.28
2019-01-28T16:48:15.654Z,98524.77
2019-01-28T16:50:44.441Z,98525.34
2019-01-28T16:53:13.170Z,98524.84
2019-01-28T16:55:41.910Z,98525.50
2019-01-28T16:58:11.177Z,98528.08
2019-01-28T17:00:41.037Z,98524.95
2019-01-28T17:03:10.678Z,98524.20
2019-01-28T17:05:40.374Z,98527.81
2019-01-28T17:08:09.094Z,98525.89
2019-01-28T17:10:37.853Z,98521.57
2019-01-28T17:13:07.112Z,98521.22
2019-01-28T17:15:35.952Z,98529.80
2019-01-28T17:18:05.524Z,98526.84
2019-01-28T17:20:35.875Z,98533.23
2019-01-28T17:23:05.195Z,98530.62
2019-01-28T17:25:45.467Z,98529.94
2019-01-28T17:28:14.200Z,98527.89
2019-01-28T17:30:48.058Z,98523.91
2019-01-28T17:33:17.014Z,98516.42
2019-01-28T17:35:45.758Z,98513.57
2019-01-28T17:38:14.489Z,98521.77
2019-01-28T17:40:43.446Z,98525.23
2019-01-28T17:43:12.671Z,98525.38
2019-01-28T17:45:41.512Z,98526.65
2019-01-28T17:48:10.506Z,98521.41
2019-01-28T17:50:43.814Z,98530.09
2019-01-28T17:53:09.802Z,98523.68
2019-01-28T17:55:38.588Z,98518.92
2019-01-28T17:58:07.621Z,98517.73
2019-01-28T18:00:47.573Z,98520.38
2019-01-28T18:03:16.304Z,98522.03
2019-01-28T18:05:45.040Z,98526.02
2019-01-28T18:08:13.913Z,98501.57
2019-01-28T18:10:42.647Z,98494.09
2019-01-28T18:13:11.378Z,98508.11
2019-01-28T18:15:40.150Z,98511.81
2019-01-28T18:18:08.882Z,98510.67
2019-01-28T18:20:37.746Z,98504.31
2019-01-28T18:23:06.943Z,98500.61
2019-01-28T18:25:36.578Z,98511.51
2019-01-28T18:28:06.416Z,98513.91
2019-01-28T18:30:41.591Z,98515.20
2019-01-28T18:33:10.433Z,98516.48
2019-01-28T18:35:39.174Z,98512.12
2019-01-28T18:38:08.363Z,98514.19
2019-01-28T18:40:38.153Z,98522.82
2019-01-28T18:43:07.691Z,98530.53
2019-01-28T18:45:36.695Z,98537.95
2019-01-28T18:48:06.531Z,98531.28
2019-01-28T18:50:35.271Z,98535.36
2019-01-28T18:53:04.209Z,98543.97
2019-01-28T18:55:32.950Z,98548.24
2019-01-28T18:58:01.693Z,98549.88
2019-01-28T19:00:32.369Z,98552.81
2019-01-28T19:03:01.104Z,98560.89
2019-01-28T19:05:34.488Z,98557.06
2019-01-28T19:08:04.947Z,98563.34
2019-01-28T19:10:35.247Z,98563.39
2019-01-28T19:13:05.654Z,98558.59
2019-01-28T19:15:36.083Z,98564.83
2019-01-28T19:18:06.900Z,98566.86
2019-01-28T19:20:37.196Z,98555.45
2019-01-28T19:23:05.982Z,98554.19
2019-01-28T19:25:34.718Z,98558.57
2019-01-28T19:28:03.464Z,98562.98
2019-01-28T19:30:32.589Z,98556.00
2019-01-28T19:33:01.328Z,98564.80
2019-01-28T19:35:30.063Z,98578.81
2019-01-28T19:37:58.949Z,98576.73
2019-01-28T19:40:27.688Z,98584.66
2019-01-28T19:42:56.421Z,98585.17
2019-01-28T19:45:25.219Z,98584.88
2019-01-28T19:47:53.960Z,98578.66
2019-01-28T19:50:22.808Z,98582.31
2019-01-28T19:52:51.653Z,98585.70
2019-01-28T19:55:20.686Z,98584.37
2019-01-28T19:57:49.468Z,98592.14
2019-01-28T20:00:21.307Z,98596.44
2019-01-28T20:02:50.043Z,98603.71
2019-01-28T20:05:18.773Z,98603.77
2019-01-28T20:07:47.561Z,98586.41
2019-01-28T20:10:16.296Z,98584.88
2019-01-28T20:12:45.034Z,98585.20
2019-01-28T20:15:17.015Z,98591.96
2019-01-28T20:17:45.842Z,98596.63
2019-01-28T20:20:17.450Z,98595.55
2019-01-28T20:22:46.355Z,98595.03
2019-01-28T20:25:19.342Z,98585.55
2019-01-28T20:27:48.071Z,98591.99
2019-01-28T20:30:22.241Z,98605.20
2019-01-28T20:32:50.975Z,98607.28
2019-01-28T20:35:19.833Z,98602.89
2019-01-28T20:37:48.913Z,98607.27
2019-01-28T20:40:17.844Z,98608.56
2019-01-28T20:42:46.574Z,98607.29
2019-01-28T20:45:20.992Z,98608.84
2019-01-28T20:47:49.727Z,98617.62
2019-01-28T20:50:29.834Z,98614.98
2019-01-28T20:52:58.548Z,98606.93
2019-01-28T20:55:27.320Z,98606.17
2019-01-28T20:57:56.249Z,98605.95
2019-01-28T21:00:29.354Z,98606.52
2019-01-28T21:02:58.194Z,98606.87
2019-01-28T21:05:27.721Z,98604.59
2019-01-28T21:07:56.480Z,98604.10
2019-01-28T21:10:25.303Z,98607.91
2019-01-28T21:12:54.766Z,98615.94
2019-01-28T21:15:24.463Z,98605.89
2019-01-28T21:17:53.200Z,98596.09
2019-01-28T21:20:23.091Z,98596.08
2019-01-28T21:22:52.118Z,98598.39
2019-01-28T21:25:28.821Z,98604.88
2019-01-28T21:27:57.560Z,98601.02
2019-01-28T21:30:31.685Z,98585.78
2019-01-28T21:33:00.537Z,98588.64
2019-01-28T21:35:34.449Z,98594.07
2019-01-28T21:38:04.749Z,98598.38
2019-01-28T21:40:33.853Z,98598.69
2019-01-28T21:43:02.587Z,98598.72
2019-01-28T21:45:31.424Z,98596.66
2019-01-28T21:48:00.342Z,98591.26
2019-01-28T21:50:29.073Z,98594.85
2019-01-28T21:52:57.805Z,98583.80
2019-01-28T21:55:26.779Z,98593.83
2019-01-28T21:57:55.514Z,98595.63
2019-01-28T22:00:24.247Z,98589.70
2019-01-28T22:02:53.145Z,98582.23
2019-01-28T22:05:21.887Z,98579.14
2019-01-28T22:07:50.618Z,98589.97
2019-01-28T22:10:19.511Z,98595.91
2019-01-28T22:12:48.247Z,98599.97
2019-01-28T22:15:20.267Z,98599.23
2019-01-28T22:17:50.285Z,98616.48
2019-01-28T22:20:19.020Z,98614.94
2019-01-28T22:22:47.747Z,98613.14
2019-01-28T22:25:17.533Z,98614.42
2019-01-28T22:27:46.258Z,98613.91
2019-01-28T22:30:17.867Z,98602.54
2019-01-28T22:32:46.722Z,98600.47
2019-01-28T22:35:16.426Z,98599.22
2019-01-28T22:37:45.155Z,98598.98
2019-01-28T22:40:18.632Z,98591.77
2019-01-28T22:42:47.363Z,98590.72
2019-01-28T22:45:20.204Z,98592.78
2019-01-28T22:47:49.764Z,98599.73
2019-01-28T22:50:20.601Z,98602.85
2019-01-28T22:52:49.431Z,98606.45
2019-01-28T22:55:22.790Z,98605.41
2019-01-28T22:57:51.522Z,98602.59
2019-01-28T23:00:39.918Z,98595.12
2019-01-28T23:03:08.849Z,98588.41
2019-01-28T23:05:37.587Z,98584.81
2019-01-28T23:08:06.588Z,98591.77
2019-01-28T23:10:36.794Z,98596.89
2019-01-28T23:13:06.229Z,98614.41
2019-01-28T23:15:35.231Z,98623.38
2019-01-28T23:18:04.164Z,98616.09
2019-01-28T23:20:32.886Z,98607.59
2019-01-28T23:23:01.660Z,98622.45
2019-01-28T23:25:30.394Z,98611.58
2019-01-28T23:27:59.123Z,98598.89
2019-01-28T23:30:27.925Z,98617.30
2019-01-28T23:32:56.761Z,98613.45
2019-01-28T23:35:25.583Z,98601.14
2019-01-28T23:37:54.651Z,98600.55
2019-01-28T23:40:23.380Z,98607.06
2019-01-28T23:42:53.829Z,98611.75
2019-01-28T23:45:23.142Z,98608.96
2019-01-28T23:47:51.874Z,98605.55
2019-01-28T23:50:20.602Z,98601.95
2019-01-28T23:52:49.449Z,98598.86
2019-01-28T23:55:18.188Z,98611.27
2019-01-28T23:57:46.904Z,98615.63
